createdAt,value
2022-11-12T00:00:30.462Z,4.38
2022-11-12T00:03:24.260Z,4.31
2022-11-12T00:06:15.604Z,4.28
2022-11-12T00:09:06.598Z,4.26
2022-11-12T00:11:57.578Z,4.30
2022-11-12T00:14:48.751Z,4.28
2022-11-12T00:17:40.387Z,4.25
2022-11-12T00:20:31.508Z,4.27
2022-11-12T00:23:22.431Z,4.27
2022-11-12T00:26:13.248Z,4.31
2022-11-12T00:29:04.566Z,4.34
2022-11-12T00:31:55.658Z,4.36
2022-11-12T00:34:49.555Z,4.38
2022-11-12T00:37:40.576Z,4.41
2022-11-12T00:40:32.372Z,4.46
2022-11-12T00:43:24.807Z,4.52
2022-11-12T00:46:15.745Z,4.57
2022-11-12T00:49:06.851Z,4.64
2022-11-12T00:51:58.229Z,4.67
2022-11-12T00:54:49.090Z,4.67
2022-11-12T00:57:42.333Z,4.69
2022-11-12T01:00:33.245Z,4.69
2022-11-12T01:03:24.564Z,4.64
2022-11-12T01:06:20.465Z,4.61
2022-11-12T01:09:11.849Z,4.57
2022-11-12T01:12:02.652Z,4.53
2022-11-12T01:14:54.009Z,4.51
2022-11-12T01:17:45.433Z,4.50
2022-11-12T01:20:39.431Z,4.47
2022-11-12T01:23:30.642Z,4.45
2022-11-12T01:26:23.877Z,4.44
2022-11-12T01:29:15.133Z,4.46
2022-11-12T01:32:06.340Z,4.44
2022-11-12T01:34:57.829Z,4.34
2022-11-12T01:37:48.241Z,4.23
2022-11-12T01:40:39.932Z,4.15
2022-11-12T01:43:30.872Z,4.08
2022-11-12T01:46:29.183Z,4.02
2022-11-12T01:49:24.640Z,3.95
2022-11-12T01:52:31.580Z,3.89
2022-11-12T01:55:29.374Z,3.82
2022-11-12T01:58:22.565Z,3.74
2022-11-12T02:01:13.906Z,3.65
2022-11-12T02:04:04.576Z,3.58
2022-11-12T02:06:57.978Z,3.53
2022-11-12T02:09:48.769Z,3.46
2022-11-12T02:12:58.295Z,3.40
2022-11-12T02:15:49.459Z,3.40
2022-11-12T02:18:40.176Z,3.46
2022-11-12T02:21:31.970Z,3.48
2022-11-12T02:24:27.466Z,3.46
2022-11-12T02:27:18.510Z,3.45
2022-11-12T02:30:10.930Z,3.44
2022-11-12T02:33:04.155Z,3.47
2022-11-12T02:35:55.356Z,3.49
2022-11-12T02:38:46.199Z,3.54
2022-11-12T02:41:38.912Z,3.59
2022-11-12T02:44:30.533Z,3.60
2022-11-12T02:47:22.155Z,3.57
2022-11-12T02:50:14.049Z,3.54
2022-11-12T02:53:05.182Z,3.51
2022-11-12T02:55:56.486Z,3.47
2022-11-12T02:58:46.951Z,3.46
2022-11-12T03:01:37.520Z,3.44
2022-11-12T03:04:28.711Z,3.42
2022-11-12T03:07:19.571Z,3.38
2022-11-12T03:10:11.119Z,3.35
2022-11-12T03:13:03.911Z,3.32
2022-11-12T03:16:01.066Z,3.32
2022-11-12T03:18:51.930Z,3.34
2022-11-12T03:21:43.341Z,3.35
2022-11-12T03:24:34.189Z,3.43
2022-11-12T03:27:24.798Z,3.49
2022-11-12T03:30:15.693Z,3.51
2022-11-12T03:33:11.564Z,3.52
2022-11-12T03:36:02.712Z,3.58
2022-11-12T03:38:53.488Z,3.66
2022-11-12T03:41:44.777Z,3.71
2022-11-12T03:44:36.435Z,3.72
2022-11-12T03:47:27.345Z,3.73
2022-11-12T03:50:20.470Z,3.75
2022-11-12T03:53:11.092Z,3.81
2022-11-12T03:56:02.045Z,3.88
2022-11-12T03:58:52.780Z,3.99
2022-11-12T04:01:44.117Z,4.09
2022-11-12T04:04:52.397Z,4.18
2022-11-12T04:08:02.058Z,4.23
2022-11-12T04:10:54.062Z,4.27
2022-11-12T04:13:48.860Z,4.34
2022-11-12T04:16:57.183Z,4.41
2022-11-12T04:20:03.290Z,4.49
2022-11-12T04:22:54.001Z,4.51
2022-11-12T04:26:02.584Z,4.53
2022-11-12T04:29:11.353Z,4.54
2022-11-12T04:32:01.925Z,4.53
2022-11-12T04:34:54.173Z,4.54
2022-11-12T04:37:45.556Z,4.59
2022-11-12T04:40:54.474Z,4.59
2022-11-12T04:44:03.072Z,4.56
2022-11-12T04:46:54.005Z,4.57
2022-11-12T04:49:44.988Z,4.58
2022-11-12T04:52:36.924Z,4.60
2022-11-12T04:55:28.282Z,4.62
2022-11-12T04:58:19.272Z,4.63
2022-11-12T05:01:10.193Z,4.64
2022-11-12T05:04:01.557Z,4.66
2022-11-12T05:06:53.232Z,4.69
2022-11-12T05:09:45.005Z,4.75
2022-11-12T05:12:36.569Z,4.77
2022-11-12T05:15:28.040Z,4.81
2022-11-12T05:18:18.979Z,4.85
2022-11-12T05:21:27.900Z,4.89
2022-11-12T05:24:40.576Z,4.92
2022-11-12T05:27:17.882Z,4.98
2022-11-12T05:30:10.259Z,5.04
2022-11-12T05:33:01.299Z,5.06
2022-11-12T05:35:52.318Z,5.08
2022-11-12T05:38:43.171Z,5.10
2022-11-12T05:41:51.388Z,5.11
2022-11-12T05:44:27.064Z,5.13
2022-11-12T05:47:18.159Z,5.14
2022-11-12T05:50:10.415Z,5.15
2022-11-12T05:53:01.300Z,5.19
2022-11-12T05:55:52.105Z,5.22
2022-11-12T05:58:42.630Z,5.26
2022-11-12T06:01:33.899Z,5.30
2022-11-12T06:04:24.844Z,5.34
2022-11-12T06:07:15.962Z,5.35
2022-11-12T06:10:08.216Z,5.33
2022-11-12T06:12:59.322Z,5.33
2022-11-12T06:15:52.615Z,5.35
2022-11-12T06:18:43.650Z,5.39
2022-11-12T06:21:34.482Z,5.43
2022-11-12T06:24:27.484Z,5.50
2022-11-12T06:27:18.278Z,5.55
2022-11-12T06:30:10.942Z,5.59
2022-11-12T06:33:01.669Z,5.63
2022-11-12T06:36:00.896Z,5.69
2022-11-12T06:38:52.430Z,5.81
2022-11-12T06:41:43.470Z,5.91
2022-11-12T06:44:34.984Z,6.00
2022-11-12T06:47:26.255Z,6.08
2022-11-12T06:50:17.846Z,6.18
2022-11-12T06:53:09.072Z,6.27
2022-11-12T06:56:07.812Z,6.33
2022-11-12T06:58:58.667Z,6.41
2022-11-12T07:01:49.629Z,6.49
2022-11-12T07:04:41.220Z,6.56
2022-11-12T07:07:32.318Z,6.58
2022-11-12T07:10:24.057Z,6.57
2022-11-12T07:13:14.721Z,6.52
2022-11-12T07:16:09.201Z,6.51
2022-11-12T07:19:02.326Z,6.53
2022-11-12T07:21:53.979Z,6.51
2022-11-12T07:24:46.468Z,6.46
2022-11-12T07:27:37.653Z,6.42
2022-11-12T07:30:28.601Z,6.42
2022-11-12T07:33:19.957Z,6.45
2022-11-12T07:36:15.277Z,6.50
2022-11-12T07:39:06.743Z,6.54
2022-11-12T07:41:57.483Z,6.56
2022-11-12T07:44:48.696Z,6.58
2022-11-12T07:47:39.593Z,6.59
2022-11-12T07:50:30.861Z,6.60
2022-11-12T07:53:21.559Z,6.62
2022-11-12T07:56:16.277Z,6.63
2022-11-12T07:59:08.178Z,6.68
2022-11-12T08:01:58.906Z,6.74
2022-11-12T08:04:49.619Z,6.77
2022-11-12T08:07:41.158Z,6.82
2022-11-12T08:10:31.831Z,6.91
2022-11-12T08:13:22.920Z,7.00
2022-11-12T08:16:14.231Z,7.05
2022-11-12T08:19:05.626Z,7.11
2022-11-12T08:21:57.442Z,7.16
2022-11-12T08:24:47.798Z,7.22
2022-11-12T08:27:39.949Z,7.28
2022-11-12T08:30:31.761Z,7.33
2022-11-12T08:33:23.173Z,7.35
2022-11-12T08:36:16.884Z,7.36
2022-11-12T08:39:08.866Z,7.40
2022-11-12T08:41:59.882Z,7.42
2022-11-12T08:44:50.357Z,7.42
2022-11-12T08:47:41.770Z,7.40
2022-11-12T08:50:32.792Z,7.41
2022-11-12T08:53:25.199Z,7.45
2022-11-12T08:56:16.520Z,7.47
2022-11-12T08:59:07.702Z,7.48
2022-11-12T09:01:58.683Z,7.48
2022-11-12T09:04:49.588Z,7.48
2022-11-12T09:07:49.908Z,7.47
2022-11-12T09:10:33.589Z,7.50
2022-11-12T09:13:25.192Z,7.52
2022-11-12T09:16:16.334Z,7.56
2022-11-12T09:19:06.932Z,7.60
2022-11-12T09:21:57.690Z,7.65
2022-11-12T09:24:48.541Z,7.71
2022-11-12T09:27:47.258Z,7.73
2022-11-12T09:30:33.548Z,7.75
2022-11-12T09:33:28.298Z,7.82
2022-11-12T09:36:20.075Z,7.85
2022-11-12T09:39:11.983Z,7.86
2022-11-12T09:42:10.261Z,7.86
2022-11-12T09:45:17.623Z,7.86
2022-11-12T09:48:10.467Z,7.84
2022-11-12T09:51:07.100Z,7.79
2022-11-12T09:54:05.461Z,7.74
2022-11-12T09:56:56.456Z,7.68
2022-11-12T09:59:48.097Z,7.66
2022-11-12T10:02:46.395Z,7.65
2022-11-12T10:05:42.516Z,7.66
2022-11-12T10:08:38.832Z,7.69
2022-11-12T10:12:22.447Z,7.71
2022-11-12T10:15:57.108Z,7.75
2022-11-12T10:19:16.200Z,7.76
2022-11-12T10:22:36.636Z,7.77
2022-11-12T10:25:29.275Z,7.79
2022-11-12T10:28:35.664Z,7.82
2022-11-12T10:31:23.844Z,7.79
2022-11-12T10:34:20.985Z,7.78
2022-11-12T10:37:47.348Z,7.81
2022-11-12T10:40:41.853Z,7.83
2022-11-12T10:43:32.792Z,7.85
2022-11-12T10:46:27.802Z,7.85
2022-11-12T10:49:23.272Z,7.84
2022-11-12T10:52:25.752Z,7.83
2022-11-12T10:55:34.711Z,7.88
2022-11-12T10:58:25.755Z,7.90
2022-11-12T11:01:19.582Z,7.93
2022-11-12T11:04:23.157Z,7.98
2022-11-12T11:07:25.128Z,8.03
2022-11-12T11:10:27.614Z,8.12
2022-11-12T11:13:29.290Z,8.19
2022-11-12T11:16:24.066Z,8.27
2022-11-12T11:19:15.879Z,8.38
2022-11-12T11:22:47.473Z,8.43
2022-11-12T11:25:39.767Z,8.49
2022-11-12T11:28:59.111Z,8.56
2022-11-12T11:32:03.270Z,8.60
2022-11-12T11:35:33.643Z,8.65
2022-11-12T11:38:56.632Z,8.69
2022-11-12T11:42:19.844Z,8.78
2022-11-12T11:45:26.697Z,8.78
2022-11-12T11:48:48.877Z,8.78
2022-11-12T11:52:06.020Z,8.83
2022-11-12T11:55:31.895Z,8.88
2022-11-12T11:58:49.947Z,8.85
2022-11-12T12:02:00.378Z,8.80
2022-11-12T12:05:30.940Z,8.78
2022-11-12T12:08:38.507Z,8.81
2022-11-12T12:11:37.387Z,8.83
2022-11-12T12:14:35.903Z,8.84
2022-11-12T12:17:49.687Z,8.86
2022-11-12T12:21:10.511Z,8.88
2022-11-12T12:24:32.785Z,8.88
2022-11-12T12:27:31.152Z,8.86
2022-11-12T12:30:26.193Z,8.84
2022-11-12T12:33:30.460Z,8.81
2022-11-12T12:36:39.496Z,8.83
2022-11-12T12:39:45.070Z,8.83
2022-11-12T12:42:40.847Z,8.88
2022-11-12T12:45:46.316Z,8.91
2022-11-12T12:48:40.325Z,8.91
2022-11-12T12:51:33.807Z,8.91
2022-11-12T12:54:45.456Z,8.90
2022-11-12T12:57:40.732Z,8.88
2022-11-12T13:00:42.425Z,8.91
2022-11-12T13:03:50.833Z,8.88
2022-11-12T13:06:50.057Z,8.86
2022-11-12T13:09:42.024Z,8.83
2022-11-12T13:13:07.463Z,8.83
2022-11-12T13:16:00.229Z,8.84
2022-11-12T13:18:58.360Z,8.83
2022-11-12T13:21:48.994Z,8.86
2022-11-12T13:25:17.179Z,8.86
2022-11-12T13:28:12.834Z,8.87
2022-11-12T13:31:05.118Z,8.86
2022-11-12T13:33:56.373Z,8.81
2022-11-12T13:37:05.423Z,8.80
2022-11-12T13:39:56.248Z,8.80
2022-11-12T13:42:51.436Z,8.79
2022-11-12T13:46:01.838Z,8.76
2022-11-12T13:49:04.029Z,8.74
2022-11-12T13:51:56.914Z,8.74
2022-11-12T13:54:47.967Z,8.72
2022-11-12T13:57:39.433Z,8.69
2022-11-12T14:00:33.092Z,8.71
2022-11-12T14:03:24.395Z,8.70
2022-11-12T14:06:37.036Z,8.73
2022-11-12T14:09:58.109Z,8.72
2022-11-12T14:12:53.710Z,8.69
2022-11-12T14:15:52.862Z,8.63
2022-11-12T14:18:57.699Z,8.58
2022-11-12T14:22:03.143Z,8.53
2022-11-12T14:24:58.658Z,8.44
2022-11-12T14:27:51.505Z,8.35
2022-11-12T14:30:46.488Z,8.28
2022-11-12T14:33:38.262Z,8.23
2022-11-12T14:36:30.940Z,8.17
2022-11-12T14:39:21.732Z,8.10
2022-11-12T14:42:15.133Z,8.05
2022-11-12T14:45:07.479Z,7.99
2022-11-12T14:47:59.139Z,7.94
2022-11-12T14:50:52.568Z,7.90
2022-11-12T14:53:57.474Z,7.87
2022-11-12T14:56:50.370Z,7.79
2022-11-12T14:59:41.891Z,7.75
2022-11-12T15:02:50.348Z,7.74
2022-11-12T15:05:28.421Z,7.74
2022-11-12T15:08:32.690Z,7.75
2022-11-12T15:11:33.944Z,7.77
2022-11-12T15:14:26.830Z,7.76
2022-11-12T15:17:26.083Z,7.76
2022-11-12T15:20:19.201Z,7.73
2022-11-12T15:23:20.121Z,7.72
2022-11-12T15:26:15.370Z,7.73
2022-11-12T15:29:31.995Z,7.75
2022-11-12T15:32:27.726Z,7.77
2022-11-12T15:35:32.884Z,7.82
2022-11-12T15:38:36.321Z,7.84
2022-11-12T15:41:32.124Z,7.84
2022-11-12T15:44:24.548Z,7.82
2022-11-12T15:47:21.980Z,7.82
2022-11-12T15:50:24.634Z,7.81
2022-11-12T15:53:17.118Z,7.82
2022-11-12T15:56:14.760Z,7.80
2022-11-12T15:59:06.009Z,7.77
2022-11-12T16:01:56.791Z,7.75
2022-11-12T16:04:47.568Z,7.71
2022-11-12T16:07:39.603Z,7.67
2022-11-12T16:10:31.025Z,7.60
2022-11-12T16:13:36.570Z,7.54
2022-11-12T16:16:27.871Z,7.48
2022-11-12T16:19:20.667Z,7.38
2022-11-12T16:22:14.597Z,7.30
2022-11-12T16:25:08.576Z,7.24
2022-11-12T16:28:01.149Z,7.17
2022-11-12T16:30:52.763Z,7.12
2022-11-12T16:33:43.754Z,7.05
2022-11-12T16:36:35.247Z,7.01
2022-11-12T16:39:26.353Z,6.95
2022-11-12T16:42:17.702Z,6.89
2022-11-12T16:45:13.235Z,6.87
2022-11-12T16:48:15.576Z,6.84
2022-11-12T16:51:06.724Z,6.77
2022-11-12T16:53:58.212Z,6.70
2022-11-12T16:56:49.727Z,6.65
2022-11-12T16:59:41.994Z,6.59
2022-11-12T17:02:36.872Z,6.57
2022-11-12T17:05:28.048Z,6.52
2022-11-12T17:08:20.654Z,6.47
2022-11-12T17:11:12.428Z,6.45
2022-11-12T17:14:04.332Z,6.41
2022-11-12T17:16:55.846Z,6.36
2022-11-12T17:19:49.249Z,6.33
2022-11-12T17:22:41.433Z,6.26
2022-11-12T17:25:32.273Z,6.21
2022-11-12T17:28:23.376Z,6.18
2022-11-12T17:31:20.389Z,6.15
2022-11-12T17:34:12.801Z,6.14
2022-11-12T17:37:03.901Z,6.12
2022-11-12T17:39:58.992Z,6.08
2022-11-12T17:42:50.714Z,6.06
2022-11-12T17:45:54.282Z,6.04
2022-11-12T17:48:45.769Z,6.03
2022-11-12T17:51:37.019Z,6.03
2022-11-12T17:54:29.222Z,6.05
2022-11-12T17:57:32.616Z,6.08
2022-11-12T18:00:25.087Z,6.12
2022-11-12T18:03:16.535Z,6.17
2022-11-12T18:06:11.887Z,6.21
2022-11-12T18:09:17.958Z,6.26
2022-11-12T18:12:10.458Z,6.26
2022-11-12T18:15:01.443Z,6.27
2022-11-12T18:17:53.568Z,6.31
2022-11-12T18:20:48.084Z,6.33
2022-11-12T18:23:44.028Z,6.38
2022-11-12T18:26:36.632Z,6.38
2022-11-12T18:29:27.440Z,6.42
2022-11-12T18:32:18.924Z,6.44
2022-11-12T18:35:11.776Z,6.45
2022-11-12T18:38:03.051Z,6.46
2022-11-12T18:41:07.137Z,6.47
2022-11-12T18:43:59.408Z,6.49
2022-11-12T18:46:53.772Z,6.54
2022-11-12T18:49:46.665Z,6.57
2022-11-12T18:52:38.435Z,6.62
2022-11-12T18:55:30.874Z,6.66
2022-11-12T18:58:21.523Z,6.66
2022-11-12T19:01:21.247Z,6.64
2022-11-12T19:04:13.877Z,6.64
2022-11-12T19:07:05.923Z,6.60
2022-11-12T19:09:58.615Z,6.60
2022-11-12T19:12:51.171Z,6.62
2022-11-12T19:15:42.490Z,6.61
2022-11-12T19:18:33.737Z,6.60
2022-11-12T19:21:28.027Z,6.59
2022-11-12T19:24:19.169Z,6.59
2022-11-12T19:27:12.356Z,6.59
2022-11-12T19:30:03.744Z,6.59
2022-11-12T19:32:56.468Z,6.59
2022-11-12T19:35:47.681Z,6.58
2022-11-12T19:38:41.191Z,6.58
2022-11-12T19:41:32.942Z,6.61
2022-11-12T19:44:24.551Z,6.60
2022-11-12T19:47:16.269Z,6.59
2022-11-12T19:50:10.066Z,6.60
2022-11-12T19:53:01.429Z,6.62
2022-11-12T19:55:52.891Z,6.67
2022-11-12T19:58:48.989Z,6.69
2022-11-12T20:01:41.169Z,6.72
2022-11-12T20:04:32.680Z,6.77
2022-11-12T20:07:23.841Z,6.79
2022-11-12T20:10:15.194Z,6.80
2022-11-12T20:13:07.332Z,6.84
2022-11-12T20:15:58.692Z,6.84
2022-11-12T20:18:51.087Z,6.85
2022-11-12T20:21:42.956Z,6.87
2022-11-12T20:24:34.241Z,6.89
2022-11-12T20:27:26.505Z,6.92
2022-11-12T20:30:19.407Z,6.93
2022-11-12T20:33:10.364Z,6.92
2022-11-12T20:36:14.017Z,6.94
2022-11-12T20:39:05.090Z,6.96
2022-11-12T20:41:56.177Z,6.96
2022-11-12T20:44:47.452Z,6.96
2022-11-12T20:47:38.577Z,6.96
2022-11-12T20:50:29.360Z,6.95
2022-11-12T20:53:20.350Z,6.96
2022-11-12T20:56:14.885Z,6.95
2022-11-12T20:59:06.374Z,6.95
2022-11-12T21:01:58.126Z,6.94
2022-11-12T21:04:49.098Z,6.95
2022-11-12T21:07:40.567Z,6.95
2022-11-12T21:10:33.078Z,6.98
2022-11-12T21:13:24.505Z,7.00
2022-11-12T21:16:16.139Z,6.99
2022-11-12T21:19:07.740Z,6.93
2022-11-12T21:21:59.314Z,6.88
2022-11-12T21:24:50.099Z,6.84
2022-11-12T21:27:41.581Z,6.81
2022-11-12T21:30:33.819Z,6.76
2022-11-12T21:33:24.913Z,6.74
2022-11-12T21:36:16.672Z,6.69
2022-11-12T21:39:08.885Z,6.67
2022-11-12T21:41:59.897Z,6.66
2022-11-12T21:44:51.702Z,6.65
2022-11-12T21:47:43.161Z,6.62
2022-11-12T21:50:34.618Z,6.58
2022-11-12T21:53:25.859Z,6.52
2022-11-12T21:56:21.101Z,6.51
2022-11-12T21:59:11.706Z,6.50
2022-11-12T22:02:03.580Z,6.50
2022-11-12T22:04:55.077Z,6.48
2022-11-12T22:07:46.450Z,6.46
2022-11-12T22:10:38.439Z,6.45
2022-11-12T22:13:29.305Z,6.46
2022-11-12T22:16:26.241Z,6.44
2022-11-12T22:19:19.745Z,6.44
2022-11-12T22:22:11.341Z,6.40
2022-11-12T22:25:02.246Z,6.37
2022-11-12T22:27:53.304Z,6.37
2022-11-12T22:30:44.435Z,6.35
2022-11-12T22:33:36.249Z,6.34
2022-11-12T22:36:31.067Z,6.36
2022-11-12T22:39:21.651Z,6.35
2022-11-12T22:42:12.555Z,6.36
2022-11-12T22:45:03.795Z,6.35
2022-11-12T22:47:55.543Z,6.33
2022-11-12T22:50:47.102Z,6.34
2022-11-12T22:53:38.070Z,6.32
2022-11-12T22:56:30.118Z,6.30
2022-11-12T22:59:21.182Z,6.28
2022-11-12T23:02:12.318Z,6.28
2022-11-12T23:05:03.796Z,6.27
2022-11-12T23:07:55.000Z,6.25
2022-11-12T23:10:47.168Z,6.23
2022-11-12T23:13:38.857Z,6.23
2022-11-12T23:16:31.726Z,6.20
2022-11-12T23:19:23.512Z,6.18
2022-11-12T23:22:14.920Z,6.17
2022-11-12T23:25:06.437Z,6.16
2022-11-12T23:27:57.217Z,6.18
2022-11-12T23:30:52.557Z,6.20
2022-11-12T23:33:48.221Z,6.23
2022-11-12T23:36:39.032Z,6.29
2022-11-12T23:39:29.576Z,6.32
2022-11-12T23:42:20.642Z,6.34
2022-11-12T23:45:12.596Z,6.34
2022-11-12T23:48:03.903Z,6.36
2022-11-12T23:51:04.853Z,6.37
2022-11-12T23:53:55.420Z,6.38
2022-11-12T23:56:46.983Z,6.38
2022-11-12T23:59:38.407Z,6.39
